sensor_id;sensor_type;location;lat;lon;timestamp;P1;durP1;ratioP1;P2;durP2;ratioP2
65863;SDS011;52639;51.180;20.460;2023-03-17T00:01:52;46.15;;;18.83;;
65863;SDS011;52639;51.180;20.460;2023-03-17T00:05:56;38.22;;;18.05;;
65863;SDS011;52639;51.180;20.460;2023-03-17T00:10:01;41.05;;;18.25;;
65863;SDS011;52639;51.180;20.460;2023-03-17T00:14:05;51.75;;;20.20;;
65863;SDS011;52639;51.180;20.460;2023-03-17T00:18:09;42.65;;;16.65;;
65863;SDS011;52639;51.180;20.460;2023-03-17T00:22:15;42.20;;;17.98;;
65863;SDS011;52639;51.180;20.460;2023-03-17T00:26:22;43.45;;;15.65;;
65863;SDS011;52639;51.180;20.460;2023-03-17T00:30:26;43.25;;;17.90;;
65863;SDS011;52639;51.180;20.460;2023-03-17T00:34:30;43.00;;;16.92;;
65863;SDS011;52639;51.180;20.460;2023-03-17T00:38:34;46.05;;;16.48;;
65863;SDS011;52639;51.180;20.460;2023-03-17T00:42:37;33.70;;;14.82;;
65863;SDS011;52639;51.180;20.460;2023-03-17T00:46:42;44.97;;;16.88;;
65863;SDS011;52639;51.180;20.460;2023-03-17T00:50:46;37.95;;;17.15;;
65863;SDS011;52639;51.180;20.460;2023-03-17T00:54:51;33.60;;;15.10;;
65863;SDS011;52639;51.180;20.460;2023-03-17T00:58:54;40.78;;;14.95;;
65863;SDS011;52639;51.180;20.460;2023-03-17T01:02:58;29.23;;;15.77;;
65863;SDS011;52639;51.180;20.460;2023-03-17T01:07:01;41.17;;;16.00;;
65863;SDS011;52639;51.180;20.460;2023-03-17T01:11:04;45.88;;;17.42;;
65863;SDS011;52639;51.180;20.460;2023-03-17T01:15:08;44.72;;;14.73;;
65863;SDS011;52639;51.180;20.460;2023-03-17T01:19:14;38.15;;;15.75;;
65863;SDS011;52639;51.180;20.460;2023-03-17T01:23:16;44.95;;;17.40;;
65863;SDS011;52639;51.180;20.460;2023-03-17T01:27:19;30.45;;;12.95;;
65863;SDS011;52639;51.180;20.460;2023-03-17T01:31:22;37.38;;;14.70;;
65863;SDS011;52639;51.180;20.460;2023-03-17T01:35:27;32.90;;;14.90;;
65863;SDS011;52639;51.180;20.460;2023-03-17T01:39:31;33.53;;;15.10;;
65863;SDS011;52639;51.180;20.460;2023-03-17T01:43:34;32.33;;;14.00;;
65863;SDS011;52639;51.180;20.460;2023-03-17T01:47:38;41.50;;;16.45;;
65863;SDS011;52639;51.180;20.460;2023-03-17T01:51:45;31.92;;;14.18;;
65863;SDS011;52639;51.180;20.460;2023-03-17T01:55:52;40.00;;;14.98;;
65863;SDS011;52639;51.180;20.460;2023-03-17T01:59:59;36.42;;;14.98;;
65863;SDS011;52639;51.180;20.460;2023-03-17T02:04:08;32.88;;;15.02;;
65863;SDS011;52639;51.180;20.460;2023-03-17T02:08:14;38.92;;;14.50;;
65863;SDS011;52639;51.180;20.460;2023-03-17T02:12:17;23.50;;;11.77;;
65863;SDS011;52639;51.180;20.460;2023-03-17T02:16:22;33.22;;;14.02;;
65863;SDS011;52639;51.180;20.460;2023-03-17T02:25:15;28.90;;;13.73;;
65863;SDS011;52639;51.180;20.460;2023-03-17T02:29:20;35.38;;;12.75;;
65863;SDS011;52639;51.180;20.460;2023-03-17T02:33:24;27.55;;;12.00;;
65863;SDS011;52639;51.180;20.460;2023-03-17T02:37:27;33.78;;;13.38;;
65863;SDS011;52639;51.180;20.460;2023-03-17T02:41:31;31.90;;;12.13;;
65863;SDS011;52639;51.180;20.460;2023-03-17T02:45:35;31.88;;;12.15;;
65863;SDS011;52639;51.180;20.460;2023-03-17T02:49:37;26.63;;;11.50;;
65863;SDS011;52639;51.180;20.460;2023-03-17T02:53:42;26.30;;;11.57;;
65863;SDS011;52639;51.180;20.460;2023-03-17T02:57:46;19.98;;;9.07;;
65863;SDS011;52639;51.180;20.460;2023-03-17T03:01:49;21.80;;;9.68;;
65863;SDS011;52639;51.180;20.460;2023-03-17T03:05:52;20.33;;;10.55;;
65863;SDS011;52639;51.180;20.460;2023-03-17T03:09:55;19.35;;;9.55;;
65863;SDS011;52639;51.180;20.460;2023-03-17T03:14:01;24.55;;;11.10;;
65863;SDS011;52639;51.180;20.460;2023-03-17T03:18:04;22.30;;;10.02;;
65863;SDS011;52639;51.180;20.460;2023-03-17T03:22:07;26.30;;;10.93;;
65863;SDS011;52639;51.180;20.460;2023-03-17T03:26:10;22.80;;;9.93;;
65863;SDS011;52639;51.180;20.460;2023-03-17T03:30:14;27.75;;;13.27;;
65863;SDS011;52639;51.180;20.460;2023-03-17T03:34:18;28.67;;;13.77;;
65863;SDS011;52639;51.180;20.460;2023-03-17T03:38:21;30.25;;;12.48;;
65863;SDS011;52639;51.180;20.460;2023-03-17T03:42:23;22.70;;;11.32;;
65863;SDS011;52639;51.180;20.460;2023-03-17T03:46:27;21.83;;;11.18;;
65863;SDS011;52639;51.180;20.460;2023-03-17T03:50:31;54.40;;;20.92;;
65863;SDS011;52639;51.180;20.460;2023-03-17T03:54:34;27.05;;;11.63;;
65863;SDS011;52639;51.180;20.460;2023-03-17T03:58:37;33.88;;;15.88;;
65863;SDS011;52639;51.180;20.460;2023-03-17T04:02:43;30.13;;;12.75;;
65863;SDS011;52639;51.180;20.460;2023-03-17T04:06:46;31.02;;;14.15;;
65863;SDS011;52639;51.180;20.460;2023-03-17T04:10:49;39.67;;;19.75;;
65863;SDS011;52639;51.180;20.460;2023-03-17T04:14:52;38.45;;;19.83;;
65863;SDS011;52639;51.180;20.460;2023-03-17T04:18:57;27.85;;;10.02;;
65863;SDS011;52639;51.180;20.460;2023-03-17T04:23:00;19.45;;;10.38;;
65863;SDS011;52639;51.180;20.460;2023-03-17T04:27:03;35.28;;;17.45;;
65863;SDS011;52639;51.180;20.460;2023-03-17T04:31:07;21.83;;;11.30;;
65863;SDS011;52639;51.180;20.460;2023-03-17T04:35:13;30.85;;;14.30;;
65863;SDS011;52639;51.180;20.460;2023-03-17T04:39:17;29.73;;;13.95;;
65863;SDS011;52639;51.180;20.460;2023-03-17T04:43:20;30.45;;;13.15;;
65863;SDS011;52639;51.180;20.460;2023-03-17T04:47:23;37.63;;;13.93;;
65863;SDS011;52639;51.180;20.460;2023-03-17T04:51:28;48.70;;;19.20;;
65863;SDS011;52639;51.180;20.460;2023-03-17T04:55:31;28.08;;;11.57;;
65863;SDS011;52639;51.180;20.460;2023-03-17T04:59:34;25.88;;;11.35;;
65863;SDS011;52639;51.180;20.460;2023-03-17T05:03:37;18.60;;;6.63;;
65863;SDS011;52639;51.180;20.460;2023-03-17T05:07:41;15.07;;;8.05;;
65863;SDS011;52639;51.180;20.460;2023-03-17T05:11:44;21.02;;;7.90;;
65863;SDS011;52639;51.180;20.460;2023-03-17T05:15:47;24.10;;;10.05;;
65863;SDS011;52639;51.180;20.460;2023-03-17T05:19:51;29.42;;;11.75;;
65863;SDS011;52639;51.180;20.460;2023-03-17T05:23:55;14.82;;;7.88;;
65863;SDS011;52639;51.180;20.460;2023-03-17T05:27:59;15.32;;;6.35;;
65863;SDS011;52639;51.180;20.460;2023-03-17T05:32:02;15.55;;;8.18;;
65863;SDS011;52639;51.180;20.460;2023-03-17T05:36:05;19.40;;;8.07;;
65863;SDS011;52639;51.180;20.460;2023-03-17T05:40:11;18.77;;;7.30;;
65863;SDS011;52639;51.180;20.460;2023-03-17T05:44:15;48.00;;;15.80;;
65863;SDS011;52639;51.180;20.460;2023-03-17T05:48:18;15.90;;;7.22;;
65863;SDS011;52639;51.180;20.460;2023-03-17T05:52:21;18.48;;;9.95;;
65863;SDS011;52639;51.180;20.460;2023-03-17T05:56:25;24.40;;;9.82;;
65863;SDS011;52639;51.180;20.460;2023-03-17T06:00:33;46.30;;;16.10;;
65863;SDS011;52639;51.180;20.460;2023-03-17T06:04:36;31.13;;;11.43;;
65863;SDS011;52639;51.180;20.460;2023-03-17T06:08:39;34.05;;;13.75;;
65863;SDS011;52639;51.180;20.460;2023-03-17T06:12:43;21.85;;;9.18;;
65863;SDS011;52639;51.180;20.460;2023-03-17T06:16:46;18.73;;;8.05;;
65863;SDS011;52639;51.180;20.460;2023-03-17T06:20:49;19.80;;;11.73;;
65863;SDS011;52639;51.180;20.460;2023-03-17T06:24:52;13.38;;;8.43;;
65863;SDS011;52639;51.180;20.460;2023-03-17T06:28:57;62.67;;;24.00;;
65863;SDS011;52639;51.180;20.460;2023-03-17T06:33:00;40.92;;;17.75;;
65863;SDS011;52639;51.180;20.460;2023-03-17T06:37:03;38.85;;;15.60;;
65863;SDS011;52639;51.180;20.460;2023-03-17T06:41:06;14.05;;;7.90;;
65863;SDS011;52639;51.180;20.460;2023-03-17T06:45:11;15.48;;;7.47;;
65863;SDS011;52639;51.180;20.460;2023-03-17T06:49:14;17.00;;;9.80;;
65863;SDS011;52639;51.180;20.460;2023-03-17T06:53:17;19.35;;;13.10;;
65863;SDS011;52639;51.180;20.460;2023-03-17T06:57:20;19.08;;;14.70;;
65863;SDS011;52639;51.180;20.460;2023-03-17T07:01:25;23.25;;;15.07;;
65863;SDS011;52639;51.180;20.460;2023-03-17T07:05:28;36.40;;;25.65;;
65863;SDS011;52639;51.180;20.460;2023-03-17T07:09:31;19.40;;;7.47;;
65863;SDS011;52639;51.180;20.460;2023-03-17T07:13:35;17.08;;;8.35;;
65863;SDS011;52639;51.180;20.460;2023-03-17T07:17:40;56.75;;;33.35;;
65863;SDS011;52639;51.180;20.460;2023-03-17T07:21:43;26.60;;;15.75;;
65863;SDS011;52639;51.180;20.460;2023-03-17T07:25:46;20.50;;;9.70;;
65863;SDS011;52639;51.180;20.460;2023-03-17T07:29:49;13.48;;;6.25;;
65863;SDS011;52639;51.180;20.460;2023-03-17T07:33:54;14.35;;;8.60;;
65863;SDS011;52639;51.180;20.460;2023-03-17T07:37:57;12.02;;;5.20;;
65863;SDS011;52639;51.180;20.460;2023-03-17T07:42:01;10.80;;;4.95;;
65863;SDS011;52639;51.180;20.460;2023-03-17T07:46:04;11.98;;;4.55;;
65863;SDS011;52639;51.180;20.460;2023-03-17T07:50:10;9.00;;;4.57;;
65863;SDS011;52639;51.180;20.460;2023-03-17T07:54:13;13.30;;;4.45;;
65863;SDS011;52639;51.180;20.460;2023-03-17T07:58:17;13.93;;;7.55;;
65863;SDS011;52639;51.180;20.460;2023-03-17T08:02:20;9.15;;;4.47;;
65863;SDS011;52639;51.180;20.460;2023-03-17T08:06:24;17.75;;;12.65;;
65863;SDS011;52639;51.180;20.460;2023-03-17T08:10:27;8.38;;;3.75;;
65863;SDS011;52639;51.180;20.460;2023-03-17T08:14:30;7.70;;;3.60;;
65863;SDS011;52639;51.180;20.460;2023-03-17T08:18:33;9.48;;;3.35;;
65863;SDS011;52639;51.180;20.460;2023-03-17T08:22:38;13.05;;;6.22;;
65863;SDS011;52639;51.180;20.460;2023-03-17T08:26:41;7.18;;;3.50;;
65863;SDS011;52639;51.180;20.460;2023-03-17T08:30:44;8.13;;;3.33;;
65863;SDS011;52639;51.180;20.460;2023-03-17T08:34:51;10.07;;;4.72;;
65863;SDS011;52639;51.180;20.460;2023-03-17T08:38:56;8.23;;;3.20;;
65863;SDS011;52639;51.180;20.460;2023-03-17T08:42:59;11.02;;;3.97;;
65863;SDS011;52639;51.180;20.460;2023-03-17T08:47:02;9.88;;;4.32;;
65863;SDS011;52639;51.180;20.460;2023-03-17T08:51:05;9.55;;;3.55;;
65863;SDS011;52639;51.180;20.460;2023-03-17T08:55:11;10.23;;;4.30;;
65863;SDS011;52639;51.180;20.460;2023-03-17T08:59:15;13.68;;;5.20;;
65863;SDS011;52639;51.180;20.460;2023-03-17T09:03:19;12.23;;;7.55;;
65863;SDS011;52639;51.180;20.460;2023-03-17T09:07:23;11.70;;;5.32;;
65863;SDS011;52639;51.180;20.460;2023-03-17T09:11:28;8.25;;;4.43;;
65863;SDS011;52639;51.180;20.460;2023-03-17T09:15:32;13.15;;;5.78;;
65863;SDS011;52639;51.180;20.460;2023-03-17T09:19:36;10.40;;;4.90;;
65863;SDS011;52639;51.180;20.460;2023-03-17T09:23:40;11.57;;;5.18;;
65863;SDS011;52639;51.180;20.460;2023-03-17T09:27:45;12.13;;;5.38;;
65863;SDS011;52639;51.180;20.460;2023-03-17T09:31:48;13.40;;;8.32;;
65863;SDS011;52639;51.180;20.460;2023-03-17T09:35:52;10.55;;;4.45;;
65863;SDS011;52639;51.180;20.460;2023-03-17T09:39:56;14.25;;;5.50;;
65863;SDS011;52639;51.180;20.460;2023-03-17T09:44:08;11.18;;;5.47;;
65863;SDS011;52639;51.180;20.460;2023-03-17T09:48:23;10.57;;;4.55;;
65863;SDS011;52639;51.180;20.460;2023-03-17T09:52:34;11.23;;;5.00;;
65863;SDS011;52639;51.180;20.460;2023-03-17T09:56:39;11.20;;;5.32;;
65863;SDS011;52639;51.180;20.460;2023-03-17T10:00:46;9.20;;;5.22;;
65863;SDS011;52639;51.180;20.460;2023-03-17T10:04:49;18.75;;;12.57;;
65863;SDS011;52639;51.180;20.460;2023-03-17T10:08:54;11.23;;;5.63;;
65863;SDS011;52639;51.180;20.460;2023-03-17T10:13:05;10.48;;;4.32;;
65863;SDS011;52639;51.180;20.460;2023-03-17T10:17:15;12.25;;;4.38;;
65863;SDS011;52639;51.180;20.460;2023-03-17T10:21:21;6.28;;;3.50;;
65863;SDS011;52639;51.180;20.460;2023-03-17T10:25:29;8.40;;;4.30;;
65863;SDS011;52639;51.180;20.460;2023-03-17T10:29:33;35.72;;;25.50;;
65863;SDS011;52639;51.180;20.460;2023-03-17T10:33:37;12.55;;;6.57;;
65863;SDS011;52639;51.180;20.460;2023-03-17T10:37:40;9.68;;;4.03;;
65863;SDS011;52639;51.180;20.460;2023-03-17T10:41:51;8.57;;;3.83;;
65863;SDS011;52639;51.180;20.460;2023-03-17T10:45:58;11.13;;;4.30;;
65863;SDS011;52639;51.180;20.460;2023-03-17T10:50:18;9.98;;;4.97;;
65863;SDS011;52639;51.180;20.460;2023-03-17T10:54:24;10.68;;;5.22;;
65863;SDS011;52639;51.180;20.460;2023-03-17T10:58:33;10.70;;;5.25;;
65863;SDS011;52639;51.180;20.460;2023-03-17T11:02:42;12.70;;;3.97;;
65863;SDS011;52639;51.180;20.460;2023-03-17T11:06:50;7.30;;;2.97;;
65863;SDS011;52639;51.180;20.460;2023-03-17T11:10:54;10.93;;;3.88;;
65863;SDS011;52639;51.180;20.460;2023-03-17T11:14:58;9.80;;;5.13;;
65863;SDS011;52639;51.180;20.460;2023-03-17T11:19:03;6.70;;;3.17;;
65863;SDS011;52639;51.180;20.460;2023-03-17T11:23:16;9.57;;;3.65;;
65863;SDS011;52639;51.180;20.460;2023-03-17T11:27:28;15.05;;;6.30;;
65863;SDS011;52639;51.180;20.460;2023-03-17T11:31:34;5.88;;;3.40;;
65863;SDS011;52639;51.180;20.460;2023-03-17T11:35:45;10.98;;;5.70;;
65863;SDS011;52639;51.180;20.460;2023-03-17T11:39:56;7.93;;;4.23;;
65863;SDS011;52639;51.180;20.460;2023-03-17T11:44:12;18.98;;;9.98;;
65863;SDS011;52639;51.180;20.460;2023-03-17T11:48:36;12.13;;;5.18;;
65863;SDS011;52639;51.180;20.460;2023-03-17T11:52:51;12.55;;;3.75;;
65863;SDS011;52639;51.180;20.460;2023-03-17T11:57:04;8.02;;;3.53;;
65863;SDS011;52639;51.180;20.460;2023-03-17T12:01:13;6.47;;;3.00;;
65863;SDS011;52639;51.180;20.460;2023-03-17T12:05:20;11.85;;;4.30;;
65863;SDS011;52639;51.180;20.460;2023-03-17T12:09:26;9.05;;;3.50;;
65863;SDS011;52639;51.180;20.460;2023-03-17T12:13:35;9.90;;;3.97;;
65863;SDS011;52639;51.180;20.460;2023-03-17T12:17:46;14.13;;;6.45;;
65863;SDS011;52639;51.180;20.460;2023-03-17T12:21:53;11.35;;;3.65;;
65863;SDS011;52639;51.180;20.460;2023-03-17T12:26:00;12.25;;;4.50;;
65863;SDS011;52639;51.180;20.460;2023-03-17T12:30:13;7.47;;;3.63;;
65863;SDS011;52639;51.180;20.460;2023-03-17T12:34:25;9.05;;;3.92;;
65863;SDS011;52639;51.180;20.460;2023-03-17T12:38:35;13.10;;;6.80;;
65863;SDS011;52639;51.180;20.460;2023-03-17T12:42:44;12.57;;;5.57;;
65863;SDS011;52639;51.180;20.460;2023-03-17T12:46:56;8.82;;;4.28;;
65863;SDS011;52639;51.180;20.460;2023-03-17T12:51:22;17.65;;;7.40;;
65863;SDS011;52639;51.180;20.460;2023-03-17T12:55:35;31.88;;;12.88;;
65863;SDS011;52639;51.180;20.460;2023-03-17T12:59:41;27.42;;;11.82;;
65863;SDS011;52639;51.180;20.460;2023-03-17T13:03:56;13.57;;;5.35;;
65863;SDS011;52639;51.180;20.460;2023-03-17T13:08:03;23.33;;;12.00;;
65863;SDS011;52639;51.180;20.460;2023-03-17T13:16:49;14.13;;;7.20;;
65863;SDS011;52639;51.180;20.460;2023-03-17T13:25:17;13.10;;;5.53;;
65863;SDS011;52639;51.180;20.460;2023-03-17T13:29:41;21.45;;;6.20;;
65863;SDS011;52639;51.180;20.460;2023-03-17T13:33:48;9.90;;;5.10;;
65863;SDS011;52639;51.180;20.460;2023-03-17T13:47:14;18.23;;;9.52;;
65863;SDS011;52639;51.180;20.460;2023-03-17T13:51:30;14.10;;;5.45;;
65863;SDS011;52639;51.180;20.460;2023-03-17T13:55:40;12.10;;;4.78;;
65863;SDS011;52639;51.180;20.460;2023-03-17T13:59:53;9.77;;;3.78;;
65863;SDS011;52639;51.180;20.460;2023-03-17T14:04:04;8.95;;;3.90;;
65863;SDS011;52639;51.180;20.460;2023-03-17T14:08:14;8.65;;;3.75;;
65863;SDS011;52639;51.180;20.460;2023-03-17T14:12:23;10.73;;;4.32;;
65863;SDS011;52639;51.180;20.460;2023-03-17T14:16:33;12.48;;;5.40;;
65863;SDS011;52639;51.180;20.460;2023-03-17T14:20:38;12.43;;;5.38;;
65863;SDS011;52639;51.180;20.460;2023-03-17T14:24:41;9.90;;;4.20;;
65863;SDS011;52639;51.180;20.460;2023-03-17T14:28:46;6.97;;;3.30;;
65863;SDS011;52639;51.180;20.460;2023-03-17T14:32:51;8.70;;;4.25;;
65863;SDS011;52639;51.180;20.460;2023-03-17T14:37:00;10.55;;;5.03;;
65863;SDS011;52639;51.180;20.460;2023-03-17T14:41:05;10.02;;;5.65;;
65863;SDS011;52639;51.180;20.460;2023-03-17T14:45:20;10.60;;;4.78;;
65863;SDS011;52639;51.180;20.460;2023-03-17T14:49:28;8.85;;;4.43;;
65863;SDS011;52639;51.180;20.460;2023-03-17T14:53:33;9.43;;;4.13;;
65863;SDS011;52639;51.180;20.460;2023-03-17T14:57:40;11.55;;;4.82;;
65863;SDS011;52639;51.180;20.460;2023-03-17T15:01:45;8.77;;;3.75;;
65863;SDS011;52639;51.180;20.460;2023-03-17T15:05:48;9.52;;;4.70;;
65863;SDS011;52639;51.180;20.460;2023-03-17T15:09:56;10.10;;;4.53;;
65863;SDS011;52639;51.180;20.460;2023-03-17T15:14:04;12.88;;;5.40;;
65863;SDS011;52639;51.180;20.460;2023-03-17T15:18:16;10.73;;;4.57;;
65863;SDS011;52639;51.180;20.460;2023-03-17T15:22:22;11.48;;;4.57;;
65863;SDS011;52639;51.180;20.460;2023-03-17T15:26:28;11.90;;;5.40;;
65863;SDS011;52639;51.180;20.460;2023-03-17T15:30:32;11.70;;;5.15;;
65863;SDS011;52639;51.180;20.460;2023-03-17T15:34:36;13.57;;;5.82;;
65863;SDS011;52639;51.180;20.460;2023-03-17T15:38:40;8.18;;;4.05;;
65863;SDS011;52639;51.180;20.460;2023-03-17T15:42:44;11.52;;;4.72;;
65863;SDS011;52639;51.180;20.460;2023-03-17T15:46:47;6.75;;;3.70;;
65863;SDS011;52639;51.180;20.460;2023-03-17T15:50:52;26.65;;;15.18;;
65863;SDS011;52639;51.180;20.460;2023-03-17T15:54:57;19.58;;;8.95;;
65863;SDS011;52639;51.180;20.460;2023-03-17T15:59:01;11.38;;;5.63;;
65863;SDS011;52639;51.180;20.460;2023-03-17T16:03:05;9.70;;;3.75;;
65863;SDS011;52639;51.180;20.460;2023-03-17T16:07:17;11.40;;;4.72;;
65863;SDS011;52639;51.180;20.460;2023-03-17T16:11:22;13.45;;;7.90;;
65863;SDS011;52639;51.180;20.460;2023-03-17T16:15:29;24.50;;;17.83;;
65863;SDS011;52639;51.180;20.460;2023-03-17T16:19:35;27.27;;;12.23;;
65863;SDS011;52639;51.180;20.460;2023-03-17T16:23:40;29.13;;;13.25;;
65863;SDS011;52639;51.180;20.460;2023-03-17T16:27:43;91.00;;;33.70;;
65863;SDS011;52639;51.180;20.460;2023-03-17T16:31:46;256.98;;;74.80;;
65863;SDS011;52639;51.180;20.460;2023-03-17T16:35:51;108.35;;;38.30;;
65863;SDS011;52639;51.180;20.460;2023-03-17T16:39:57;100.68;;;38.65;;
65863;SDS011;52639;51.180;20.460;2023-03-17T16:44:01;49.83;;;21.77;;
65863;SDS011;52639;51.180;20.460;2023-03-17T16:48:08;42.25;;;22.05;;
65863;SDS011;52639;51.180;20.460;2023-03-17T16:52:15;36.15;;;23.48;;
65863;SDS011;52639;51.180;20.460;2023-03-17T16:56:20;13.50;;;7.47;;
65863;SDS011;52639;51.180;20.460;2023-03-17T17:00:27;15.20;;;8.70;;
65863;SDS011;52639;51.180;20.460;2023-03-17T17:04:31;15.02;;;8.80;;
65863;SDS011;52639;51.180;20.460;2023-03-17T17:08:40;15.57;;;6.20;;
65863;SDS011;52639;51.180;20.460;2023-03-17T17:12:45;29.73;;;13.68;;
65863;SDS011;52639;51.180;20.460;2023-03-17T17:16:49;34.50;;;14.30;;
65863;SDS011;52639;51.180;20.460;2023-03-17T17:20:53;36.42;;;16.55;;
65863;SDS011;52639;51.180;20.460;2023-03-17T17:24:57;37.88;;;17.95;;
65863;SDS011;52639;51.180;20.460;2023-03-17T17:29:09;23.00;;;9.13;;
65863;SDS011;52639;51.180;20.460;2023-03-17T17:33:31;29.58;;;12.98;;
65863;SDS011;52639;51.180;20.460;2023-03-17T17:37:44;152.52;;;53.72;;
65863;SDS011;52639;51.180;20.460;2023-03-17T17:42:00;90.47;;;34.70;;
65863;SDS011;52639;51.180;20.460;2023-03-17T17:46:22;75.40;;;27.30;;
65863;SDS011;52639;51.180;20.460;2023-03-17T17:50:39;24.60;;;11.25;;
65863;SDS011;52639;51.180;20.460;2023-03-17T17:54:47;59.58;;;25.15;;
65863;SDS011;52639;51.180;20.460;2023-03-17T17:59:01;42.10;;;17.70;;
65863;SDS011;52639;51.180;20.460;2023-03-17T18:03:16;24.70;;;12.32;;
65863;SDS011;52639;51.180;20.460;2023-03-17T18:07:27;25.27;;;10.60;;
65863;SDS011;52639;51.180;20.460;2023-03-17T18:11:31;22.45;;;8.15;;
65863;SDS011;52639;51.180;20.460;2023-03-17T18:15:42;26.98;;;11.68;;
65863;SDS011;52639;51.180;20.460;2023-03-17T18:19:50;19.33;;;8.10;;
65863;SDS011;52639;51.180;20.460;2023-03-17T18:23:55;21.77;;;9.38;;
65863;SDS011;52639;51.180;20.460;2023-03-17T18:27:59;23.83;;;10.02;;
65863;SDS011;52639;51.180;20.460;2023-03-17T18:32:09;23.60;;;8.73;;
65863;SDS011;52639;51.180;20.460;2023-03-17T18:36:25;25.45;;;10.90;;
65863;SDS011;52639;51.180;20.460;2023-03-17T18:40:29;24.75;;;9.35;;
65863;SDS011;52639;51.180;20.460;2023-03-17T18:44:34;25.83;;;11.13;;
65863;SDS011;52639;51.180;20.460;2023-03-17T18:48:40;18.63;;;6.97;;
65863;SDS011;52639;51.180;20.460;2023-03-17T18:52:48;23.80;;;10.57;;
65863;SDS011;52639;51.180;20.460;2023-03-17T18:56:53;18.90;;;6.78;;
65863;SDS011;52639;51.180;20.460;2023-03-17T19:00:58;27.05;;;10.73;;
65863;SDS011;52639;51.180;20.460;2023-03-17T19:05:05;20.35;;;8.88;;
65863;SDS011;52639;51.180;20.460;2023-03-17T19:09:18;18.42;;;7.65;;
65863;SDS011;52639;51.180;20.460;2023-03-17T19:13:23;23.20;;;7.80;;
65863;SDS011;52639;51.180;20.460;2023-03-17T19:17:33;22.35;;;8.82;;
65863;SDS011;52639;51.180;20.460;2023-03-17T19:21:40;31.95;;;12.57;;
65863;SDS011;52639;51.180;20.460;2023-03-17T19:25:51;17.65;;;7.03;;
65863;SDS011;52639;51.180;20.460;2023-03-17T19:29:56;23.17;;;9.57;;
65863;SDS011;52639;51.180;20.460;2023-03-17T19:34:02;31.15;;;13.63;;
65863;SDS011;52639;51.180;20.460;2023-03-17T19:38:10;21.45;;;9.70;;
65863;SDS011;52639;51.180;20.460;2023-03-17T19:42:20;26.85;;;10.07;;
65863;SDS011;52639;51.180;20.460;2023-03-17T19:46:25;17.35;;;8.18;;
65863;SDS011;52639;51.180;20.460;2023-03-17T19:50:31;18.08;;;6.85;;
65863;SDS011;52639;51.180;20.460;2023-03-17T19:54:37;14.07;;;7.05;;
65863;SDS011;52639;51.180;20.460;2023-03-17T19:58:47;42.30;;;16.65;;
65863;SDS011;52639;51.180;20.460;2023-03-17T20:02:54;15.40;;;7.30;;
65863;SDS011;52639;51.180;20.460;2023-03-17T20:07:02;21.58;;;7.68;;
65863;SDS011;52639;51.180;20.460;2023-03-17T20:11:19;12.07;;;5.38;;
65863;SDS011;52639;51.180;20.460;2023-03-17T20:15:28;17.90;;;8.05;;
65863;SDS011;52639;51.180;20.460;2023-03-17T20:19:38;17.70;;;7.13;;
65863;SDS011;52639;51.180;20.460;2023-03-17T20:23:44;21.08;;;6.88;;
65863;SDS011;52639;51.180;20.460;2023-03-17T20:27:49;15.82;;;6.85;;
65863;SDS011;52639;51.180;20.460;2023-03-17T20:31:59;10.93;;;4.88;;
65863;SDS011;52639;51.180;20.460;2023-03-17T20:36:05;27.00;;;11.00;;
65863;SDS011;52639;51.180;20.460;2023-03-17T20:40:12;11.60;;;4.85;;
65863;SDS011;52639;51.180;20.460;2023-03-17T20:44:18;12.13;;;6.88;;
65863;SDS011;52639;51.180;20.460;2023-03-17T20:48:25;16.10;;;8.32;;
65863;SDS011;52639;51.180;20.460;2023-03-17T20:52:31;17.58;;;6.03;;
65863;SDS011;52639;51.180;20.460;2023-03-17T20:56:43;14.20;;;6.13;;
65863;SDS011;52639;51.180;20.460;2023-03-17T21:00:54;12.90;;;4.28;;
65863;SDS011;52639;51.180;20.460;2023-03-17T21:05:04;12.80;;;5.97;;
65863;SDS011;52639;51.180;20.460;2023-03-17T21:09:08;17.52;;;6.65;;
65863;SDS011;52639;51.180;20.460;2023-03-17T21:13:14;12.75;;;5.93;;
65863;SDS011;52639;51.180;20.460;2023-03-17T21:17:19;13.57;;;5.28;;
65863;SDS011;52639;51.180;20.460;2023-03-17T21:21:27;10.80;;;5.10;;
65863;SDS011;52639;51.180;20.460;2023-03-17T21:25:33;12.43;;;4.63;;
65863;SDS011;52639;51.180;20.460;2023-03-17T21:29:49;12.13;;;5.05;;
65863;SDS011;52639;51.180;20.460;2023-03-17T21:34:01;10.00;;;4.57;;
65863;SDS011;52639;51.180;20.460;2023-03-17T21:38:09;11.23;;;5.35;;
65863;SDS011;52639;51.180;20.460;2023-03-17T21:42:13;10.07;;;4.93;;
65863;SDS011;52639;51.180;20.460;2023-03-17T21:46:16;9.95;;;4.80;;
65863;SDS011;52639;51.180;20.460;2023-03-17T21:50:19;7.60;;;4.43;;
65863;SDS011;52639;51.180;20.460;2023-03-17T21:54:24;13.07;;;5.55;;
65863;SDS011;52639;51.180;20.460;2023-03-17T21:58:28;13.88;;;4.95;;
65863;SDS011;52639;51.180;20.460;2023-03-17T22:02:31;11.48;;;5.32;;
65863;SDS011;52639;51.180;20.460;2023-03-17T22:06:34;11.00;;;5.28;;
65863;SDS011;52639;51.180;20.460;2023-03-17T22:10:39;9.95;;;4.47;;
65863;SDS011;52639;51.180;20.460;2023-03-17T22:14:42;12.70;;;4.85;;
65863;SDS011;52639;51.180;20.460;2023-03-17T22:18:45;11.48;;;4.75;;
65863;SDS011;52639;51.180;20.460;2023-03-17T22:22:48;10.48;;;5.22;;
65863;SDS011;52639;51.180;20.460;2023-03-17T22:26:52;8.15;;;4.10;;
65863;SDS011;52639;51.180;20.460;2023-03-17T22:30:55;9.18;;;4.03;;
65863;SDS011;52639;51.180;20.460;2023-03-17T22:34:58;6.00;;;3.75;;
65863;SDS011;52639;51.180;20.460;2023-03-17T22:39:01;12.32;;;4.15;;
65863;SDS011;52639;51.180;20.460;2023-03-17T22:43:06;8.05;;;3.88;;
65863;SDS011;52639;51.180;20.460;2023-03-17T22:47:09;6.68;;;3.63;;
65863;SDS011;52639;51.180;20.460;2023-03-17T22:51:13;13.80;;;4.20;;
65863;SDS011;52639;51.180;20.460;2023-03-17T22:55:17;9.63;;;3.72;;
65863;SDS011;52639;51.180;20.460;2023-03-17T22:59:22;6.53;;;3.03;;
65863;SDS011;52639;51.180;20.460;2023-03-17T23:03:25;8.35;;;4.03;;
65863;SDS011;52639;51.180;20.460;2023-03-17T23:07:31;8.65;;;4.70;;
65863;SDS011;52639;51.180;20.460;2023-03-17T23:11:34;9.98;;;4.25;;
65863;SDS011;52639;51.180;20.460;2023-03-17T23:15:39;11.57;;;4.40;;
65863;SDS011;52639;51.180;20.460;2023-03-17T23:19:42;5.75;;;2.88;;
65863;SDS011;52639;51.180;20.460;2023-03-17T23:23:45;6.25;;;2.88;;
65863;SDS011;52639;51.180;20.460;2023-03-17T23:27:48;8.05;;;3.38;;
65863;SDS011;52639;51.180;20.460;2023-03-17T23:31:53;11.50;;;4.25;;
65863;SDS011;52639;51.180;20.460;2023-03-17T23:35:56;9.77;;;4.80;;
65863;SDS011;52639;51.180;20.460;2023-03-17T23:39:58;11.27;;;4.85;;
65863;SDS011;52639;51.180;20.460;2023-03-17T23:44:01;9.25;;;3.42;;
65863;SDS011;52639;51.180;20.460;2023-03-17T23:48:06;9.75;;;4.05;;
65863;SDS011;52639;51.180;20.460;2023-03-17T23:52:10;5.45;;;3.20;;
65863;SDS011;52639;51.180;20.460;2023-03-17T23:56:13;7.05;;;3.20;;
